createdAt,value
2023-05-19T00:01:47.728Z,13.89
2023-05-19T00:04:17.952Z,13.69
2023-05-19T00:06:51.020Z,13.94
2023-05-19T00:09:19.116Z,14.20
2023-05-19T00:11:46.963Z,14.06
2023-05-19T00:14:15.133Z,13.22
2023-05-19T00:16:43.483Z,13.74
2023-05-19T00:19:11.292Z,12.99
2023-05-19T00:21:40.344Z,13.45
2023-05-19T00:24:08.160Z,13.30
2023-05-19T00:26:36.062Z,13.61
2023-05-19T00:29:03.731Z,13.74
2023-05-19T00:31:32.788Z,14.03
2023-05-19T00:34:00.538Z,14.41
2023-05-19T00:36:28.234Z,14.11
2023-05-19T00:38:57.424Z,13.94
2023-05-19T00:41:27.552Z,14.20
2023-05-19T00:43:55.588Z,14.31
2023-05-19T00:46:23.479Z,14.25
2023-05-19T00:48:51.218Z,14.39
2023-05-19T00:51:19.088Z,14.32
2023-05-19T00:53:48.775Z,14.23
2023-05-19T00:56:19.091Z,13.89
2023-05-19T00:58:50.432Z,13.80
2023-05-19T01:01:18.561Z,14.03
2023-05-19T01:03:47.483Z,14.21
2023-05-19T01:06:15.367Z,14.04
2023-05-19T01:08:44.885Z,13.86
2023-05-19T01:11:12.805Z,13.95
2023-05-19T01:13:42.393Z,13.15
2023-05-19T01:16:19.373Z,13.73
2023-05-19T01:19:00.341Z,13.11
2023-05-19T01:22:07.481Z,13.39
2023-05-19T01:25:04.351Z,13.68
2023-05-19T01:27:50.450Z,12.87
2023-05-19T01:30:28.515Z,12.80
2023-05-19T01:33:00.752Z,13.56
2023-05-19T01:35:30.869Z,12.80
2023-05-19T01:38:00.422Z,12.61
2023-05-19T01:40:30.250Z,12.67
2023-05-19T01:43:00.356Z,12.70
2023-05-19T01:45:32.308Z,12.67
2023-05-19T01:48:02.589Z,12.77
2023-05-19T01:50:32.164Z,13.50
2023-05-19T01:53:00.417Z,13.78
2023-05-19T01:55:28.736Z,13.55
2023-05-19T01:58:09.435Z,12.95
2023-05-19T02:00:51.407Z,13.65
2023-05-19T02:03:37.331Z,13.73
2023-05-19T02:06:21.159Z,13.71
2023-05-19T02:08:58.073Z,13.03
2023-05-19T02:11:36.291Z,13.23
2023-05-19T02:14:13.658Z,12.80
2023-05-19T02:16:47.104Z,13.10
2023-05-19T02:19:24.661Z,13.08
2023-05-19T02:21:52.541Z,12.69
2023-05-19T02:24:20.276Z,13.12
2023-05-19T02:26:48.026Z,12.58
2023-05-19T02:29:16.082Z,13.31
2023-05-19T02:31:45.302Z,13.65
2023-05-19T02:34:13.389Z,13.70
2023-05-19T02:36:42.486Z,13.61
2023-05-19T02:39:10.720Z,13.80
2023-05-19T02:41:38.705Z,13.46
2023-05-19T02:44:06.400Z,13.35
2023-05-19T02:46:34.322Z,13.04
2023-05-19T02:49:03.605Z,12.37
2023-05-19T02:51:31.448Z,11.84
2023-05-19T02:53:59.126Z,11.61
2023-05-19T02:56:26.952Z,11.45
2023-05-19T02:58:54.535Z,11.34
2023-05-19T03:01:22.278Z,11.30
2023-05-19T03:03:50.128Z,11.19
2023-05-19T03:06:21.581Z,11.20
2023-05-19T03:08:50.726Z,11.20
2023-05-19T03:11:18.472Z,11.25
2023-05-19T03:13:46.250Z,11.34
2023-05-19T03:16:14.034Z,11.21
2023-05-19T03:18:43.052Z,11.22
2023-05-19T03:21:10.737Z,11.28
2023-05-19T03:23:39.775Z,11.33
2023-05-19T03:26:07.826Z,11.29
2023-05-19T03:28:35.510Z,11.19
2023-05-19T03:31:03.749Z,11.24
2023-05-19T03:33:31.808Z,11.12
2023-05-19T03:35:59.458Z,11.55
2023-05-19T03:38:27.061Z,11.62
2023-05-19T03:40:56.080Z,11.31
2023-05-19T03:43:23.783Z,11.26
2023-05-19T03:45:51.461Z,11.47
2023-05-19T03:48:21.154Z,11.48
2023-05-19T03:50:49.056Z,11.55
2023-05-19T03:53:17.753Z,11.59
2023-05-19T03:55:45.804Z,11.42
2023-05-19T03:58:15.067Z,12.02
2023-05-19T04:00:43.001Z,12.31
2023-05-19T04:03:10.748Z,12.14
2023-05-19T04:05:39.747Z,11.60
2023-05-19T04:08:07.433Z,11.28
2023-05-19T04:10:35.151Z,11.81
2023-05-19T04:13:02.887Z,12.13
2023-05-19T04:15:32.032Z,12.49
2023-05-19T04:17:59.746Z,12.35
2023-05-19T04:20:27.890Z,12.86
2023-05-19T04:22:55.514Z,13.20
2023-05-19T04:25:23.217Z,13.43
2023-05-19T04:27:50.952Z,13.48
2023-05-19T04:30:18.899Z,12.34
2023-05-19T04:32:48.132Z,11.82
2023-05-19T04:35:15.886Z,12.56
2023-05-19T04:37:44.085Z,12.20
2023-05-19T04:40:12.979Z,12.71
2023-05-19T04:42:40.644Z,12.95
2023-05-19T04:45:10.148Z,13.46
2023-05-19T04:47:38.139Z,13.09
2023-05-19T04:50:08.184Z,12.65
2023-05-19T04:52:35.875Z,12.96
2023-05-19T04:55:04.061Z,13.03
2023-05-19T04:57:32.678Z,12.84
2023-05-19T05:00:00.621Z,13.33
2023-05-19T05:02:29.718Z,12.95
2023-05-19T05:04:57.729Z,12.81
2023-05-19T05:07:27.409Z,12.72
2023-05-19T05:09:57.347Z,13.17
2023-05-19T05:12:25.690Z,13.39
2023-05-19T05:14:54.014Z,13.82
2023-05-19T05:17:22.207Z,13.89
2023-05-19T05:19:50.306Z,14.47
2023-05-19T05:22:19.015Z,14.34
2023-05-19T05:24:49.058Z,14.71
2023-05-19T05:27:17.011Z,15.01
2023-05-19T05:29:44.706Z,14.99
2023-05-19T05:32:12.638Z,15.64
2023-05-19T05:34:40.728Z,15.29
2023-05-19T05:37:09.622Z,15.15
2023-05-19T05:39:37.811Z,14.71
2023-05-19T05:42:07.650Z,15.30
2023-05-19T05:44:35.515Z,15.20
2023-05-19T05:47:03.871Z,15.62
2023-05-19T05:49:32.199Z,15.27
2023-05-19T05:52:06.111Z,15.16
2023-05-19T05:54:35.296Z,15.25
2023-05-19T05:57:04.590Z,15.43
2023-05-19T05:59:33.613Z,16.54
2023-05-19T06:02:01.529Z,17.32
2023-05-19T06:04:29.260Z,17.66
2023-05-19T06:06:56.946Z,16.87
2023-05-19T06:09:25.153Z,15.65
2023-05-19T06:11:52.874Z,14.71
2023-05-19T06:14:20.570Z,14.95
2023-05-19T06:16:49.549Z,15.48
2023-05-19T06:19:18.219Z,15.57
2023-05-19T06:21:47.861Z,15.82
2023-05-19T06:24:15.518Z,16.05
2023-05-19T06:26:43.343Z,16.25
2023-05-19T06:29:12.010Z,16.32
2023-05-19T06:31:39.670Z,15.91
2023-05-19T06:34:08.770Z,17.08
2023-05-19T06:36:37.880Z,17.05
2023-05-19T06:39:05.526Z,17.27
2023-05-19T06:41:33.129Z,17.10
2023-05-19T06:44:00.879Z,18.35
2023-05-19T06:46:28.581Z,18.62
2023-05-19T06:48:56.316Z,18.75
2023-05-19T06:51:25.716Z,19.66
2023-05-19T06:53:53.810Z,19.78
2023-05-19T06:56:21.553Z,19.22
2023-05-19T06:58:49.245Z,19.70
2023-05-19T07:01:16.923Z,19.45
2023-05-19T07:03:44.777Z,19.22
2023-05-19T07:06:12.928Z,19.00
2023-05-19T07:08:42.262Z,19.38
2023-05-19T07:11:10.291Z,18.14
2023-05-19T07:13:38.228Z,17.52
2023-05-19T07:16:06.134Z,18.44
2023-05-19T07:18:34.044Z,18.39
2023-05-19T07:21:01.862Z,18.25
2023-05-19T07:23:29.537Z,18.27
2023-05-19T07:25:58.548Z,18.07
2023-05-19T07:28:27.298Z,17.89
2023-05-19T07:30:55.014Z,18.84
2023-05-19T07:33:22.881Z,19.79
2023-05-19T07:35:50.586Z,18.45
2023-05-19T07:38:18.343Z,16.75
2023-05-19T07:40:45.942Z,18.52
2023-05-19T07:43:15.003Z,18.64
2023-05-19T07:45:42.720Z,19.47
2023-05-19T07:48:10.551Z,19.69
2023-05-19T07:50:38.284Z,20.25
2023-05-19T07:53:06.020Z,19.07
2023-05-19T07:55:33.697Z,19.40
2023-05-19T07:58:01.369Z,19.28
2023-05-19T08:00:30.581Z,19.77
2023-05-19T08:02:58.626Z,18.52
2023-05-19T08:05:26.385Z,17.76
2023-05-19T08:07:54.046Z,17.46
2023-05-19T08:10:21.819Z,16.16
2023-05-19T08:12:49.440Z,15.48
2023-05-19T08:15:17.159Z,17.35
2023-05-19T08:17:48.482Z,16.57
2023-05-19T08:20:16.271Z,16.28
2023-05-19T08:22:43.959Z,18.05
2023-05-19T08:25:11.628Z,17.60
2023-05-19T08:27:39.310Z,16.41
2023-05-19T08:30:09.092Z,15.11
2023-05-19T08:32:36.787Z,16.59
2023-05-19T08:35:06.693Z,15.27
2023-05-19T08:37:34.573Z,15.72
2023-05-19T08:40:02.161Z,15.44
2023-05-19T08:42:30.182Z,14.42
2023-05-19T08:44:58.409Z,13.86
2023-05-19T08:47:26.224Z,14.81
2023-05-19T08:50:04.785Z,15.01
2023-05-19T08:52:50.904Z,14.63
2023-05-19T08:55:34.310Z,16.64
2023-05-19T08:58:04.418Z,17.43
2023-05-19T09:00:32.864Z,17.49
2023-05-19T09:03:16.979Z,16.55
2023-05-19T09:05:50.857Z,16.87
2023-05-19T09:08:20.046Z,17.66
2023-05-19T09:10:47.758Z,17.40
2023-05-19T09:13:17.017Z,17.95
2023-05-19T09:15:46.193Z,16.67
2023-05-19T09:18:14.577Z,17.31
2023-05-19T09:20:44.372Z,17.79
2023-05-19T09:23:16.740Z,17.13
2023-05-19T09:25:50.401Z,17.11
2023-05-19T09:28:25.196Z,17.47
2023-05-19T09:31:02.669Z,16.82
2023-05-19T09:33:34.410Z,15.95
2023-05-19T09:36:02.715Z,17.64
2023-05-19T09:38:30.391Z,17.60
2023-05-19T09:41:00.270Z,18.94
2023-05-19T09:43:28.901Z,19.54
2023-05-19T09:45:59.812Z,19.10
2023-05-19T09:48:27.897Z,18.47
2023-05-19T09:50:55.999Z,16.62
2023-05-19T09:53:24.608Z,17.76
2023-05-19T09:55:56.248Z,17.59
2023-05-19T09:58:25.692Z,16.91
2023-05-19T10:00:54.030Z,16.62
2023-05-19T10:03:25.018Z,15.98
2023-05-19T10:05:53.713Z,16.13
2023-05-19T10:08:23.450Z,16.16
2023-05-19T10:10:51.706Z,16.49
2023-05-19T10:13:21.636Z,16.21
2023-05-19T10:15:58.601Z,16.27
2023-05-19T10:18:27.996Z,16.34
2023-05-19T10:20:56.216Z,15.84
2023-05-19T10:23:23.990Z,14.54
2023-05-19T10:25:57.654Z,16.04
2023-05-19T10:28:34.672Z,17.26
2023-05-19T10:31:10.135Z,15.38
2023-05-19T10:33:59.905Z,16.84
2023-05-19T10:36:47.563Z,15.58
2023-05-19T10:39:20.985Z,16.04
2023-05-19T10:42:01.275Z,17.71
2023-05-19T10:44:46.446Z,16.00
2023-05-19T10:47:23.465Z,15.46
2023-05-19T10:49:52.451Z,17.68
2023-05-19T10:52:20.751Z,16.51
2023-05-19T10:54:48.694Z,18.26
2023-05-19T10:57:18.319Z,18.24
2023-05-19T10:59:46.108Z,17.88
2023-05-19T11:02:40.533Z,18.60
2023-05-19T11:05:11.550Z,18.12
2023-05-19T11:07:41.860Z,18.17
2023-05-19T11:10:10.484Z,18.01
2023-05-19T11:12:43.766Z,18.27
2023-05-19T11:15:15.592Z,18.33
2023-05-19T11:17:49.102Z,16.23
2023-05-19T11:20:24.267Z,17.86
2023-05-19T11:23:05.017Z,18.96
2023-05-19T11:25:43.949Z,19.08
2023-05-19T11:28:12.325Z,18.74
2023-05-19T11:30:42.707Z,19.22
2023-05-19T11:33:13.174Z,20.17
2023-05-19T11:35:43.496Z,19.47
2023-05-19T11:38:11.709Z,18.83
2023-05-19T11:40:41.612Z,18.93
2023-05-19T11:43:09.402Z,19.32
2023-05-19T11:45:37.749Z,20.32
2023-05-19T11:48:05.939Z,20.47
2023-05-19T11:50:35.125Z,20.03
2023-05-19T11:53:02.984Z,19.04
2023-05-19T11:55:31.172Z,19.11
2023-05-19T12:00:35.389Z,19.77
2023-05-19T12:03:03.411Z,17.27
2023-05-19T12:05:34.497Z,18.08
2023-05-19T12:08:06.021Z,19.48
2023-05-19T12:10:34.753Z,20.16
2023-05-19T12:13:03.252Z,19.41
2023-05-19T12:15:32.069Z,19.17
2023-05-19T12:18:01.303Z,18.47
2023-05-19T12:20:30.712Z,18.32
2023-05-19T12:22:59.982Z,18.38
2023-05-19T12:25:29.755Z,19.46
2023-05-19T12:27:59.423Z,18.85
2023-05-19T12:30:28.738Z,19.54
2023-05-19T12:32:57.778Z,19.23
2023-05-19T12:35:29.871Z,18.77
2023-05-19T12:38:02.860Z,19.48
2023-05-19T12:40:33.963Z,19.73
2023-05-19T12:43:02.520Z,19.69
2023-05-19T12:45:34.810Z,19.40
2023-05-19T12:48:05.322Z,19.10
2023-05-19T12:50:33.621Z,19.45
2023-05-19T12:53:01.485Z,19.20
2023-05-19T12:55:30.213Z,19.33
2023-05-19T12:57:59.300Z,20.43
2023-05-19T13:00:27.044Z,19.42
2023-05-19T13:02:57.252Z,20.00
2023-05-19T13:05:25.330Z,19.97
2023-05-19T13:07:57.341Z,19.89
2023-05-19T13:10:28.107Z,20.63
2023-05-19T13:12:59.654Z,19.89
2023-05-19T13:15:30.540Z,20.35
2023-05-19T13:18:00.530Z,20.98
2023-05-19T13:20:28.693Z,22.22
2023-05-19T13:22:56.414Z,21.40
2023-05-19T13:25:24.163Z,21.46
2023-05-19T13:27:56.790Z,22.86
2023-05-19T13:30:24.604Z,20.45
2023-05-19T13:32:54.079Z,19.64
2023-05-19T13:35:21.975Z,20.57
2023-05-19T13:37:49.975Z,21.42
2023-05-19T13:40:17.719Z,19.72
2023-05-19T13:42:45.900Z,21.87
2023-05-19T13:45:13.989Z,22.24
2023-05-19T13:47:41.734Z,21.94
2023-05-19T13:50:10.911Z,19.61
2023-05-19T13:52:38.693Z,19.90
2023-05-19T13:55:07.181Z,21.71
2023-05-19T13:57:34.828Z,19.31
2023-05-19T14:00:04.086Z,18.60
2023-05-19T14:02:33.158Z,19.23
2023-05-19T14:05:06.104Z,19.67
2023-05-19T14:07:35.691Z,19.65
2023-05-19T14:10:05.083Z,19.30
2023-05-19T14:12:44.907Z,19.46
2023-05-19T14:15:19.832Z,19.05
2023-05-19T14:17:47.962Z,18.69
2023-05-19T14:20:15.702Z,18.33
2023-05-19T14:22:44.729Z,18.82
2023-05-19T14:25:12.353Z,18.81
2023-05-19T14:27:40.109Z,19.13
2023-05-19T14:30:09.282Z,18.80
2023-05-19T14:32:36.947Z,19.11
2023-05-19T14:35:05.540Z,19.48
2023-05-19T14:37:33.485Z,20.04
2023-05-19T14:40:02.932Z,19.51
2023-05-19T14:42:30.836Z,19.07
2023-05-19T14:44:58.731Z,18.47
2023-05-19T14:47:27.289Z,17.99
2023-05-19T14:49:55.100Z,18.28
2023-05-19T14:52:23.644Z,18.91
2023-05-19T14:54:51.547Z,18.80
2023-05-19T14:57:21.470Z,19.31
2023-05-19T14:59:49.257Z,19.88
2023-05-19T15:02:17.002Z,18.33
2023-05-19T15:04:44.978Z,18.22
2023-05-19T15:07:14.161Z,18.36
2023-05-19T15:09:42.062Z,18.59
2023-05-19T15:12:09.853Z,18.25
2023-05-19T15:14:39.502Z,18.95
2023-05-19T15:17:07.571Z,18.48
2023-05-19T15:19:35.995Z,18.57
2023-05-19T15:22:03.761Z,18.10
2023-05-19T15:24:31.413Z,18.37
2023-05-19T15:26:59.708Z,19.03
2023-05-19T15:29:27.743Z,18.24
2023-05-19T15:31:56.702Z,18.23
2023-05-19T15:34:25.669Z,17.60
2023-05-19T15:36:53.560Z,17.99
2023-05-19T15:39:21.320Z,17.40
2023-05-19T15:41:50.373Z,17.36
2023-05-19T15:44:18.040Z,17.26
2023-05-19T15:46:45.765Z,17.19
2023-05-19T15:49:14.851Z,17.37
2023-05-19T15:51:43.345Z,18.14
2023-05-19T15:54:11.494Z,18.85
2023-05-19T15:56:39.569Z,18.23
2023-05-19T15:59:07.696Z,18.17
2023-05-19T16:01:36.031Z,18.06
2023-05-19T16:04:04.269Z,18.90
2023-05-19T16:06:33.497Z,18.14
2023-05-19T16:09:01.303Z,18.07
2023-05-19T16:11:29.210Z,18.55
2023-05-19T16:13:56.932Z,18.52
2023-05-19T16:16:24.748Z,17.71
2023-05-19T16:18:52.722Z,16.97
2023-05-19T16:21:20.937Z,17.94
2023-05-19T16:23:49.974Z,17.92
2023-05-19T16:26:18.108Z,18.07
2023-05-19T16:28:46.782Z,18.12
2023-05-19T16:31:15.881Z,17.75
2023-05-19T16:33:43.990Z,17.63
2023-05-19T16:36:13.032Z,17.22
2023-05-19T16:38:40.699Z,16.93
2023-05-19T16:41:15.361Z,17.81
2023-05-19T16:43:43.561Z,17.43
2023-05-19T16:46:11.564Z,17.10
2023-05-19T16:48:40.407Z,17.81
2023-05-19T16:51:08.822Z,17.27
2023-05-19T16:53:36.484Z,17.48
2023-05-19T16:56:04.823Z,16.67
2023-05-19T16:58:33.982Z,17.52
2023-05-19T17:01:02.243Z,17.87
2023-05-19T17:03:31.310Z,17.90
2023-05-19T17:05:59.383Z,17.83
2023-05-19T17:08:26.970Z,17.85
2023-05-19T17:10:54.703Z,17.59
2023-05-19T17:13:22.620Z,17.78
2023-05-19T17:15:52.270Z,17.02
2023-05-19T17:18:19.874Z,16.91
2023-05-19T17:20:47.726Z,17.13
2023-05-19T17:23:15.340Z,17.30
2023-05-19T17:25:42.996Z,17.53
2023-05-19T17:28:11.881Z,17.18
2023-05-19T17:30:40.203Z,17.46
2023-05-19T17:33:09.296Z,17.06
2023-05-19T17:35:37.711Z,16.55
2023-05-19T17:38:05.715Z,16.57
2023-05-19T17:40:34.025Z,16.77
2023-05-19T17:43:01.875Z,17.12
2023-05-19T17:45:29.578Z,17.62
2023-05-19T17:47:57.509Z,17.59
2023-05-19T17:50:26.763Z,16.65
2023-05-19T17:52:55.242Z,16.57
2023-05-19T17:55:24.379Z,16.24
2023-05-19T17:57:52.132Z,16.75
2023-05-19T18:00:20.966Z,16.22
2023-05-19T18:02:49.541Z,16.43
2023-05-19T18:05:18.053Z,16.18
2023-05-19T18:07:49.344Z,16.64
2023-05-19T18:10:18.723Z,16.54
2023-05-19T18:12:46.568Z,16.43
2023-05-19T18:15:14.377Z,16.54
2023-05-19T18:17:42.269Z,16.73
2023-05-19T18:20:11.547Z,16.34
2023-05-19T18:22:39.243Z,16.95
2023-05-19T18:25:09.481Z,17.60
2023-05-19T18:27:37.412Z,17.65
2023-05-19T18:30:06.631Z,17.65
2023-05-19T18:32:34.322Z,17.71
2023-05-19T18:35:02.257Z,17.72
2023-05-19T18:37:32.677Z,17.86
2023-05-19T18:40:00.481Z,18.01
2023-05-19T18:42:29.885Z,17.99
2023-05-19T18:44:57.487Z,17.92
2023-05-19T18:47:27.407Z,17.80
2023-05-19T18:49:55.131Z,17.84
2023-05-19T18:52:22.748Z,17.94
2023-05-19T18:54:50.441Z,17.46
2023-05-19T18:57:18.095Z,17.51
2023-05-19T18:59:47.313Z,17.54
2023-05-19T19:04:56.580Z,17.19
2023-05-19T19:07:24.937Z,17.27
2023-05-19T19:09:53.673Z,17.49
2023-05-19T19:12:21.533Z,17.09
2023-05-19T19:14:50.786Z,17.33
2023-05-19T19:17:18.403Z,17.60
2023-05-19T19:19:46.158Z,17.59
2023-05-19T19:22:14.134Z,17.79
2023-05-19T19:24:42.004Z,17.82
2023-05-19T19:27:09.871Z,16.93
2023-05-19T19:29:37.618Z,17.21
2023-05-19T19:32:07.496Z,17.09
2023-05-19T19:34:35.180Z,17.02
2023-05-19T19:37:04.130Z,16.57
2023-05-19T19:39:31.784Z,17.48
2023-05-19T19:41:59.462Z,17.17
2023-05-19T19:44:27.152Z,17.09
2023-05-19T19:46:55.516Z,17.03
2023-05-19T19:49:24.512Z,16.21
2023-05-19T19:51:52.365Z,15.63
2023-05-19T19:54:20.109Z,16.16
2023-05-19T19:56:47.760Z,15.42
2023-05-19T19:59:15.405Z,15.27
2023-05-19T20:01:43.560Z,15.56
2023-05-19T20:04:11.747Z,16.07
2023-05-19T20:06:41.021Z,15.74
2023-05-19T20:09:09.997Z,15.43
2023-05-19T20:11:38.002Z,15.39
2023-05-19T20:14:05.743Z,15.32
2023-05-19T20:16:33.468Z,15.04
2023-05-19T20:19:02.282Z,15.03
2023-05-19T20:21:30.233Z,14.82
2023-05-19T20:23:59.201Z,14.70
2023-05-19T20:26:26.778Z,14.66
2023-05-19T20:28:54.775Z,14.58
2023-05-19T20:31:22.465Z,14.60
2023-05-19T20:33:50.175Z,14.63
2023-05-19T20:36:18.517Z,14.67
2023-05-19T20:38:46.134Z,15.24
2023-05-19T20:41:15.625Z,14.86
2023-05-19T20:43:43.401Z,15.00
2023-05-19T20:46:11.371Z,14.75
2023-05-19T20:48:39.183Z,14.59
2023-05-19T20:51:07.126Z,14.70
2023-05-19T20:53:35.220Z,14.80
2023-05-19T20:56:04.492Z,14.72
2023-05-19T20:58:33.725Z,14.78
2023-05-19T21:01:01.607Z,14.50
2023-05-19T21:03:29.344Z,14.37
2023-05-19T21:05:56.985Z,14.56
2023-05-19T21:08:26.219Z,14.42
2023-05-19T21:10:54.129Z,14.51
2023-05-19T21:13:21.754Z,14.72
2023-05-19T21:15:51.747Z,14.44
2023-05-19T21:18:19.450Z,14.47
2023-05-19T21:20:47.101Z,14.49
2023-05-19T21:23:15.062Z,14.31
2023-05-19T21:25:45.193Z,14.22
2023-05-19T21:28:13.088Z,14.27
2023-05-19T21:30:40.836Z,14.30
2023-05-19T21:33:10.098Z,14.41
2023-05-19T21:35:37.959Z,14.21
2023-05-19T21:38:15.707Z,14.13
2023-05-19T21:40:51.865Z,14.26
2023-05-19T21:43:19.560Z,14.15
2023-05-19T21:45:48.298Z,14.25
2023-05-19T21:48:17.690Z,14.07
2023-05-19T21:50:46.426Z,14.11
2023-05-19T21:53:14.275Z,14.09
2023-05-19T21:55:42.016Z,14.33
2023-05-19T21:58:13.436Z,14.21
2023-05-19T22:00:41.145Z,14.08
2023-05-19T22:03:09.174Z,14.01
2023-05-19T22:05:38.538Z,14.21
2023-05-19T22:08:06.226Z,14.02
2023-05-19T22:10:34.350Z,14.33
2023-05-19T22:13:02.089Z,14.23
2023-05-19T22:15:30.043Z,13.86
2023-05-19T22:17:57.760Z,13.90
2023-05-19T22:20:25.802Z,13.88
2023-05-19T22:22:54.728Z,13.81
2023-05-19T22:25:22.628Z,13.79
2023-05-19T22:27:50.441Z,13.86
2023-05-19T22:30:18.169Z,14.23
2023-05-19T22:32:46.083Z,14.00
2023-05-19T22:35:14.104Z,13.99
2023-05-19T22:37:41.776Z,13.82
2023-05-19T22:40:11.622Z,13.80
2023-05-19T22:42:39.277Z,13.72
2023-05-19T22:45:08.111Z,13.77
2023-05-19T22:47:35.992Z,13.68
2023-05-19T22:50:04.195Z,13.73
2023-05-19T22:52:32.090Z,13.77
2023-05-19T22:55:00.020Z,13.73
2023-05-19T22:57:29.128Z,13.59
2023-05-19T22:59:56.800Z,13.55
2023-05-19T23:02:24.559Z,13.61
2023-05-19T23:04:52.349Z,13.46
2023-05-19T23:07:19.996Z,13.44
2023-05-19T23:09:47.636Z,13.50
2023-05-19T23:12:15.235Z,13.81
2023-05-19T23:14:44.289Z,13.52
2023-05-19T23:17:13.382Z,13.66
2023-05-19T23:19:44.272Z,13.71
2023-05-19T23:22:11.960Z,13.63
2023-05-19T23:24:39.574Z,13.71
2023-05-19T23:27:07.150Z,13.62
2023-05-19T23:29:34.933Z,13.64
2023-05-19T23:32:04.915Z,13.59
2023-05-19T23:34:32.535Z,13.77
2023-05-19T23:37:00.156Z,13.61
2023-05-19T23:39:27.770Z,13.80
2023-05-19T23:41:55.375Z,13.69
2023-05-19T23:44:23.071Z,13.86
2023-05-19T23:46:50.716Z,13.86
2023-05-19T23:49:22.210Z,13.86
2023-05-19T23:51:49.789Z,14.02
2023-05-19T23:54:17.464Z,14.29
2023-05-19T23:56:46.118Z,14.03
2023-05-19T23:59:13.806Z,14.22
